Time;durP1;ratioP1;P1;durP2;ratioP2;P2;SDS_P1;SDS_P2;PMS_P1;PMS_P2;Temp;Humidity;BMP_temperature;BMP_pressure;BME280_temperature;BME280_humidity;BME280_pressure;Samples;Min_cycle;Max_cycle;Signal;HPM_P1;HPM_P2
2020/12/18 00:00:23;;;;;;;;;;;5.70;99.90;;;;;;5065856;28;19924;-68
2020/12/18 00:02:48;;;;;;;;;;;5.70;99.90;;;;;;5065814;28;19917;-68
2020/12/18 00:05:14;;;;;;;;;;;5.70;99.90;;;;;;5065970;28;19912;-68
2020/12/18 00:07:39;;;;;;;;;;;5.70;99.90;;;;;;5066244;28;20057;-68
2020/12/18 00:10:05;;;;;;;;;;;5.70;99.90;;;;;;5066264;28;19912;-69
2020/12/18 00:12:30;;;;;;;;;;;5.70;99.90;;;;;;5066907;28;20623;-68
2020/12/18 00:14:56;;;;;;;;;;;5.70;99.90;;;;;;5066382;28;19986;-70
2020/12/18 00:17:21;;;;;;;;;;;5.70;99.90;;;;;;5065154;28;19912;-68
2020/12/18 00:19:47;;;;;;;;;;;5.60;99.90;;;;;;5066326;28;19917;-68
2020/12/18 00:22:12;;;;;;;;;;;5.60;99.90;;;;;;5065982;28;19963;-68
2020/12/18 00:24:38;;;;;;;;;;;5.60;99.90;;;;;;5066699;28;20011;-68
2020/12/18 00:27:03;;;;;;;;;;;5.60;99.90;;;;;;5066220;28;19955;-70
2020/12/18 00:29:29;;;;;;;;;;;5.60;99.90;;;;;;5066522;28;20621;-70
2020/12/18 00:31:54;;;;;;;;;;;5.50;99.90;;;;;;5063985;28;19917;-70
2020/12/18 00:34:20;;;;;;;;;;;5.50;99.90;;;;;;5066752;28;19916;-68
2020/12/18 00:36:49;;;;;;;;;;;5.50;99.90;;;;;;5065960;28;20559;-70
2020/12/18 00:39:15;;;;;;;;;;;5.40;99.90;;;;;;5066062;28;19921;-69
2020/12/18 00:41:40;;;;;;;;;;;5.30;99.90;;;;;;5065471;28;19958;-69
2020/12/18 00:44:06;;;;;;;;;;;5.30;99.90;;;;;;5066445;28;20346;-68
2020/12/18 00:46:31;;;;;;;;;;;5.30;99.90;;;;;;5064589;28;20014;-69
2020/12/18 00:48:57;;;;;;;;;;;5.30;99.90;;;;;;5065562;28;19924;-70
2020/12/18 00:51:22;;;;;;;;;;;5.30;99.90;;;;;;5066104;28;19921;-68
2020/12/18 00:53:48;;;;;;;;;;;5.30;99.90;;;;;;5066348;28;19928;-68
2020/12/18 00:56:14;;;;;;;;;;;5.30;99.90;;;;;;5065955;28;20358;-68
2020/12/18 00:58:42;;;;;;;;;;;5.40;99.90;;;;;;5066143;28;19928;-69
2020/12/18 01:01:08;;;;;;;;;;;5.40;99.90;;;;;;5065117;28;19916;-71
2020/12/18 01:03:33;;;;;;;;;;;5.40;99.90;;;;;;5064271;28;20081;-69
2020/12/18 01:06:04;;;;;;;;;;;5.40;99.90;;;;;;5065736;28;19964;-69
2020/12/18 01:08:30;;;;;;;;;;;5.30;99.90;;;;;;5067007;28;20506;-70
2020/12/18 01:10:55;;;;;;;;;;;5.40;99.90;;;;;;5086189;28;19978;-69
2020/12/18 01:13:21;;;;;;;;;;;5.30;99.90;;;;;;5087397;28;19932;-69
2020/12/18 01:15:46;;;;;;;;;;;5.40;99.90;;;;;;5070213;28;19913;-69
2020/12/18 01:18:12;;;;;;;;;;;5.40;99.90;;;;;;5067740;28;19916;-69
2020/12/18 01:20:37;;;;;;;;;;;5.50;99.90;;;;;;5069355;28;19913;-70
2020/12/18 01:23:03;;;;;;;;;;;5.50;99.90;;;;;;5070028;28;20365;-69
2020/12/18 01:25:28;;;;;;;;;;;5.40;99.90;;;;;;5069231;28;19924;-69
2020/12/18 01:27:54;;;;;;;;;;;5.40;99.90;;;;;;5069618;28;20439;-69
2020/12/18 01:30:19;;;;;;;;;;;5.40;99.90;;;;;;5070212;28;19970;-69
2020/12/18 01:32:45;;;;;;;;;;;5.40;99.90;;;;;;5068862;28;19996;-68
2020/12/18 01:35:10;;;;;;;;;;;5.30;99.90;;;;;;5070784;28;19934;-68
2020/12/18 01:37:36;;;;;;;;;;;5.30;99.90;;;;;;5070477;28;19913;-68
2020/12/18 01:40:02;;;;;;;;;;;5.40;99.90;;;;;;5069070;28;19928;-68
2020/12/18 01:42:27;;;;;;;;;;;5.40;99.90;;;;;;5069802;28;19920;-69
2020/12/18 01:44:53;;;;;;;;;;;5.30;99.90;;;;;;5069461;28;19967;-70
2020/12/18 01:47:28;;;;;;;;;;;5.30;99.90;;;;;;5067836;28;20638;-69
2020/12/18 01:49:54;;;;;;;;;;;5.30;99.90;;;;;;5070091;28;19923;-69
2020/12/18 01:52:19;;;;;;;;;;;5.30;99.90;;;;;;5070520;28;19920;-68
2020/12/18 01:54:45;;;;;;;;;;;5.30;99.90;;;;;;5070260;28;19916;-70
2020/12/18 01:57:11;;;;;;;;;;;5.30;99.90;;;;;;5069757;28;19958;-70
2020/12/18 01:59:36;;;;;;;;;;;5.30;99.90;;;;;;5069678;28;19916;-70
2020/12/18 02:02:02;;;;;;;;;;;5.30;99.90;;;;;;5065792;28;19913;-68
2020/12/18 02:04:28;;;;;;;;;;;5.40;99.90;;;;;;5075045;28;20008;-68
2020/12/18 02:06:54;;;;;;;;;;;5.40;99.90;;;;;;5078339;28;19959;-68
2020/12/18 02:09:19;;;;;;;;;;;5.40;99.90;;;;;;5077978;28;19920;-68
2020/12/18 02:11:45;;;;;;;;;;;5.50;99.90;;;;;;5075550;28;19973;-68
2020/12/18 02:14:12;;;;;;;;;;;5.40;99.90;;;;;;5078319;28;19966;-69
2020/12/18 02:16:38;;;;;;;;;;;5.40;99.90;;;;;;5074826;28;19992;-68
2020/12/18 02:19:04;;;;;;;;;;;5.40;99.90;;;;;;5076678;28;20385;-69
2020/12/18 02:21:29;;;;;;;;;;;5.40;99.90;;;;;;5075812;28;19926;-72
2020/12/18 02:23:55;;;;;;;;;;;5.50;99.90;;;;;;5077958;28;19958;-70
2020/12/18 02:26:20;;;;;;;;;;;5.50;99.90;;;;;;5073577;28;19920;-69
2020/12/18 02:28:46;;;;;;;;;;;5.50;99.90;;;;;;5068324;28;19912;-69
2020/12/18 02:31:12;;;;;;;;;;;5.40;99.90;;;;;;5068942;28;19970;-70
2020/12/18 02:33:39;;;;;;;;;;;5.30;99.90;;;;;;5068880;28;20353;-68
2020/12/18 02:36:05;;;;;;;;;;;5.30;99.90;;;;;;5073673;28;19920;-70
2020/12/18 02:38:30;;;;;;;;;;;5.30;99.90;;;;;;5077886;28;20296;-68
2020/12/18 02:40:57;;;;;;;;;;;5.30;99.90;;;;;;5075292;28;19977;-69
2020/12/18 02:43:22;;;;;;;;;;;5.30;99.90;;;;;;5077524;28;19935;-69
2020/12/18 02:45:48;;;;;;;;;;;5.30;99.90;;;;;;5077652;28;20392;-68
2020/12/18 02:48:14;;;;;;;;;;;5.30;99.90;;;;;;5075178;28;19976;-70
2020/12/18 02:50:40;;;;;;;;;;;5.30;99.90;;;;;;5076887;28;19923;-69
2020/12/18 02:53:13;;;;;;;;;;;5.40;99.90;;;;;;5078308;28;19916;-69
2020/12/18 02:55:39;;;;;;;;;;;5.40;99.90;;;;;;5077504;28;20510;-68
2020/12/18 02:58:04;;;;;;;;;;;5.50;99.90;;;;;;5077402;28;19916;-68
2020/12/18 03:00:30;;;;;;;;;;;5.50;99.90;;;;;;5076820;28;19916;-68
2020/12/18 03:02:55;;;;;;;;;;;5.50;99.90;;;;;;5078250;28;20585;-68
2020/12/18 03:05:20;;;;;;;;;;;5.50;99.90;;;;;;5076103;28;19923;-67
2020/12/18 03:07:46;;;;;;;;;;;5.60;99.90;;;;;;5076216;28;19956;-70
2020/12/18 03:10:11;;;;;;;;;;;5.60;99.90;;;;;;5077098;28;19965;-69
2020/12/18 03:12:37;;;;;;;;;;;5.60;99.90;;;;;;5077459;28;20349;-68
2020/12/18 03:15:03;;;;;;;;;;;5.70;99.90;;;;;;5069000;28;19962;-68
2020/12/18 03:17:28;;;;;;;;;;;5.60;99.90;;;;;;5066487;28;20040;-69
2020/12/18 03:19:54;;;;;;;;;;;5.60;99.90;;;;;;5067245;28;20460;-69
2020/12/18 03:22:19;;;;;;;;;;;5.50;99.90;;;;;;5067641;28;19942;-69
2020/12/18 03:24:45;;;;;;;;;;;5.40;99.90;;;;;;5068753;28;19920;-69
2020/12/18 03:27:10;;;;;;;;;;;5.50;99.90;;;;;;5067605;28;20365;-69
2020/12/18 03:29:36;;;;;;;;;;;5.60;99.90;;;;;;5066591;28;19970;-69
2020/12/18 03:32:01;;;;;;;;;;;5.50;99.90;;;;;;5065668;28;19923;-68
2020/12/18 03:34:27;;;;;;;;;;;5.50;99.90;;;;;;5066266;28;19921;-69
2020/12/18 03:36:52;;;;;;;;;;;5.50;99.90;;;;;;5067211;28;19921;-68
2020/12/18 03:39:18;;;;;;;;;;;5.50;99.90;;;;;;5066669;28;20669;-68
2020/12/18 03:41:43;;;;;;;;;;;5.50;99.90;;;;;;5066122;28;19913;-69
2020/12/18 03:44:09;;;;;;;;;;;5.50;99.90;;;;;;5067384;28;19921;-69
2020/12/18 03:46:34;;;;;;;;;;;5.50;99.90;;;;;;5065782;28;19998;-69
2020/12/18 03:48:59;;;;;;;;;;;5.40;99.90;;;;;;5067168;28;20011;-71
2020/12/18 03:51:25;;;;;;;;;;;5.50;99.90;;;;;;5066755;28;19912;-69
2020/12/18 03:53:50;;;;;;;;;;;5.50;99.90;;;;;;5067668;28;20372;-69
2020/12/18 03:56:16;;;;;;;;;;;5.50;99.90;;;;;;5067702;28;19913;-68
2020/12/18 03:58:41;;;;;;;;;;;5.50;99.90;;;;;;5066028;28;19917;-68
2020/12/18 04:01:07;;;;;;;;;;;5.60;99.90;;;;;;5066105;28;19936;-68
2020/12/18 04:03:33;;;;;;;;;;;5.50;99.90;;;;;;5066348;28;19916;-68
2020/12/18 04:05:58;;;;;;;;;;;5.60;99.90;;;;;;5066301;28;20238;-68
2020/12/18 04:08:24;;;;;;;;;;;5.60;99.90;;;;;;5066395;28;20412;-67
2020/12/18 04:10:49;;;;;;;;;;;5.60;99.90;;;;;;5065885;28;19916;-67
2020/12/18 04:13:15;;;;;;;;;;;5.70;99.90;;;;;;5066921;28;20603;-69
2020/12/18 04:15:41;;;;;;;;;;;5.70;99.90;;;;;;5066772;28;20536;-68
2020/12/18 04:18:07;;;;;;;;;;;5.60;99.90;;;;;;5065924;28;20350;-68
2020/12/18 04:20:32;;;;;;;;;;;5.60;99.90;;;;;;5067204;28;20017;-69
2020/12/18 04:22:58;;;;;;;;;;;5.60;99.90;;;;;;5067382;28;20020;-68
2020/12/18 04:25:23;;;;;;;;;;;5.60;99.90;;;;;;5066777;28;19908;-68
2020/12/18 04:27:49;;;;;;;;;;;5.60;99.90;;;;;;5066029;28;20349;-68
2020/12/18 04:30:14;;;;;;;;;;;5.60;99.90;;;;;;5066519;28;19924;-67
2020/12/18 04:32:40;;;;;;;;;;;5.60;99.90;;;;;;5065074;28;19953;-68
2020/12/18 04:35:05;;;;;;;;;;;5.60;99.90;;;;;;5066801;28;19920;-68
2020/12/18 04:37:31;;;;;;;;;;;5.50;99.90;;;;;;5066859;28;19974;-68
2020/12/18 04:39:56;;;;;;;;;;;5.50;99.90;;;;;;5066505;28;19917;-69
2020/12/18 04:42:22;;;;;;;;;;;5.60;99.90;;;;;;5066764;28;19927;-69
2020/12/18 04:44:48;;;;;;;;;;;5.60;99.90;;;;;;5099500;22;19913;-73
2020/12/18 04:47:14;;;;;;;;;;;5.60;99.90;;;;;;5063121;28;20003;-71
2020/12/18 04:49:40;;;;;;;;;;;5.60;99.90;;;;;;5066867;28;20361;-71
2020/12/18 04:52:08;;;;;;;;;;;5.60;99.90;;;;;;5066863;28;19966;-72
2020/12/18 04:54:34;;;;;;;;;;;5.70;99.90;;;;;;5067248;28;19983;-71
2020/12/18 04:57:01;;;;;;;;;;;5.70;99.90;;;;;;5047183;28;20004;-72
2020/12/18 04:59:27;;;;;;;;;;;5.70;99.90;;;;;;5042029;28;20538;-72
2020/12/18 05:01:54;;;;;;;;;;;5.70;99.90;;;;;;5024801;28;19959;-73
2020/12/18 05:04:20;;;;;;;;;;;5.70;99.90;;;;;;5030353;28;20053;-71
2020/12/18 05:06:46;;;;;;;;;;;5.60;99.90;;;;;;5042004;28;19951;-72
2020/12/18 05:09:11;;;;;;;;;;;5.60;99.90;;;;;;5027978;28;19967;-71
2020/12/18 05:11:37;;;;;;;;;;;5.60;99.90;;;;;;5045604;28;20015;-71
2020/12/18 05:14:02;;;;;;;;;;;5.70;99.90;;;;;;5042636;28;20434;-71
2020/12/18 05:16:28;;;;;;;;;;;5.70;99.90;;;;;;5027107;28;20499;-71
2020/12/18 05:18:55;;;;;;;;;;;5.70;99.90;;;;;;5044998;28;20011;-73
2020/12/18 05:21:21;;;;;;;;;;;5.70;99.90;;;;;;5046282;28;20264;-72
2020/12/18 05:23:46;;;;;;;;;;;5.70;99.90;;;;;;5046849;28;19912;-72
2020/12/18 05:26:13;;;;;;;;;;;5.70;99.90;;;;;;5046426;28;19920;-71
2020/12/18 05:28:47;;;;;;;;;;;5.70;99.90;;;;;;5046175;28;19956;-71
2020/12/18 05:31:13;;;;;;;;;;;5.70;99.90;;;;;;5046014;28;20380;-71
2020/12/18 05:33:39;;;;;;;;;;;5.70;99.90;;;;;;5045712;28;19913;-71
2020/12/18 05:36:05;;;;;;;;;;;5.70;99.90;;;;;;5045307;28;19917;-72
2020/12/18 05:38:33;;;;;;;;;;;5.70;99.90;;;;;;5028425;28;19920;-71
2020/12/18 05:40:59;;;;;;;;;;;5.80;99.90;;;;;;5043106;28;20338;-72
2020/12/18 05:43:25;;;;;;;;;;;5.80;99.90;;;;;;5046898;28;20321;-72
2020/12/18 05:45:51;;;;;;;;;;;5.80;99.90;;;;;;5046072;28;20012;-71
2020/12/18 05:48:16;;;;;;;;;;;5.70;99.90;;;;;;5044481;28;19913;-74
2020/12/18 05:50:42;;;;;;;;;;;5.70;99.90;;;;;;5046285;28;20364;-72
2020/12/18 05:53:08;;;;;;;;;;;5.70;99.90;;;;;;5046818;28;19989;-72
2020/12/18 05:55:34;;;;;;;;;;;5.70;99.90;;;;;;5047920;28;20455;-71
2020/12/18 05:58:00;;;;;;;;;;;5.70;99.90;;;;;;5045410;28;20594;-72
2020/12/18 06:00:28;;;;;;;;;;;5.70;99.90;;;;;;5041331;28;19928;-71
2020/12/18 06:02:58;;;;;;;;;;;5.70;99.90;;;;;;5047910;28;19913;-71
2020/12/18 06:05:24;;;;;;;;;;;5.70;99.90;;;;;;5040507;28;19917;-71
2020/12/18 06:07:51;;;;;;;;;;;5.70;99.90;;;;;;5038652;28;20565;-70
2020/12/18 06:10:24;;;;;;;;;;;5.70;99.90;;;;;;5046445;28;20003;-74
2020/12/18 06:12:58;;;;;;;;;;;5.60;99.90;;;;;;5050685;28;19972;-72
2020/12/18 06:15:25;;;;;;;;;;;5.60;99.90;;;;;;5036734;28;20381;-72
2020/12/18 06:17:51;;;;;;;;;;;5.60;99.90;;;;;;5033926;28;20405;-72
2020/12/18 06:20:19;;;;;;;;;;;5.60;99.90;;;;;;5030590;28;19924;-72
2020/12/18 06:22:57;;;;;;;;;;;5.50;99.90;;;;;;5034055;28;19916;-71
2020/12/18 06:25:22;;;;;;;;;;;5.50;99.90;;;;;;5041326;28;19920;-73
2020/12/18 06:28:14;;;;;;;;;;;5.50;99.90;;;;;;5049112;28;19917;-75
2020/12/18 06:30:40;;;;;;;;;;;5.50;99.90;;;;;;5045786;28;20050;-72
2020/12/18 06:33:06;;;;;;;;;;;5.50;99.90;;;;;;5045387;28;20008;-72
2020/12/18 06:35:36;;;;;;;;;;;5.60;99.90;;;;;;5042631;28;19913;-71
2020/12/18 06:38:13;;;;;;;;;;;5.60;99.90;;;;;;5039496;28;19917;-73
2020/12/18 06:40:40;;;;;;;;;;;5.60;99.90;;;;;;5037902;28;19916;-72
2020/12/18 06:43:05;;;;;;;;;;;5.50;99.90;;;;;;5049080;28;20626;-72
2020/12/18 06:45:31;;;;;;;;;;;5.50;99.90;;;;;;5048796;28;19946;-73
2020/12/18 06:47:57;;;;;;;;;;;5.60;99.90;;;;;;5047529;28;19913;-72
2020/12/18 06:50:23;;;;;;;;;;;5.60;99.90;;;;;;5048009;28;20241;-72
2020/12/18 06:52:55;;;;;;;;;;;5.50;99.90;;;;;;5049383;28;19992;-72
2020/12/18 06:55:27;;;;;;;;;;;5.50;99.90;;;;;;5040016;28;19947;-71
2020/12/18 06:58:11;;;;;;;;;;;5.50;99.90;;;;;;5041904;28;20289;-73
2020/12/18 07:00:37;;;;;;;;;;;5.50;99.90;;;;;;5045414;28;20525;-71
2020/12/18 07:03:03;;;;;;;;;;;5.50;99.90;;;;;;5047766;28;19917;-72
2020/12/18 07:05:31;;;;;;;;;;;5.50;99.90;;;;;;5046651;28;19924;-71
2020/12/18 07:07:58;;;;;;;;;;;5.50;99.90;;;;;;5051419;28;19920;-71
2020/12/18 07:10:30;;;;;;;;;;;5.50;99.90;;;;;;5057629;28;19916;-72
2020/12/18 07:12:57;;;;;;;;;;;5.50;99.90;;;;;;5048978;28;19927;-72
2020/12/18 07:15:26;;;;;;;;;;;5.50;99.90;;;;;;5065443;28;19935;-72
2020/12/18 07:17:52;;;;;;;;;;;5.50;99.90;;;;;;5053766;28;20066;-71
2020/12/18 07:20:17;;;;;;;;;;;5.50;99.90;;;;;;5047652;28;20027;-72
2020/12/18 07:22:43;;;;;;;;;;;5.50;99.90;;;;;;5056722;28;20523;-72
2020/12/18 07:25:12;;;;;;;;;;;5.50;99.90;;;;;;5056737;28;19927;-74
2020/12/18 07:27:38;;;;;;;;;;;5.50;99.90;;;;;;5055252;28;19913;-73
2020/12/18 07:30:11;;;;;;;;;;;5.50;99.90;;;;;;5057140;28;20003;-73
2020/12/18 07:32:36;;;;;;;;;;;5.50;99.90;;;;;;5055095;28;19920;-73
2020/12/18 07:35:08;;;;;;;;;;;5.50;99.90;;;;;;5057815;28;19923;-74
2020/12/18 07:37:35;;;;;;;;;;;5.60;99.90;;;;;;5055542;28;19916;-73
2020/12/18 07:40:00;;;;;;;;;;;5.60;99.90;;;;;;5058273;28;19966;-72
2020/12/18 07:42:26;;;;;;;;;;;5.70;99.90;;;;;;5058874;28;19943;-74
2020/12/18 07:45:21;;;;;;;;;;;5.70;99.90;;;;;;5055980;28;19967;-74
2020/12/18 07:47:47;;;;;;;;;;;5.70;99.90;;;;;;5041721;28;19924;-73
2020/12/18 07:50:12;;;;;;;;;;;5.80;99.90;;;;;;5043997;28;19916;-71
2020/12/18 07:52:38;;;;;;;;;;;5.80;99.90;;;;;;5046368;28;19951;-72
2020/12/18 07:55:04;;;;;;;;;;;6.00;99.90;;;;;;5046740;28;19916;-72
2020/12/18 07:57:29;;;;;;;;;;;6.10;99.90;;;;;;5047661;28;19912;-72
2020/12/18 08:00:09;;;;;;;;;;;6.30;99.90;;;;;;5055554;28;19912;-71
2020/12/18 08:02:34;;;;;;;;;;;6.50;99.90;;;;;;5054388;28;20004;-73
2020/12/18 08:05:03;;;;;;;;;;;6.60;99.90;;;;;;5055050;28;20008;-73
2020/12/18 08:07:29;;;;;;;;;;;6.70;99.90;;;;;;5058008;28;20441;-73
2020/12/18 08:09:59;;;;;;;;;;;6.80;99.90;;;;;;5058809;28;19917;-70
2020/12/18 08:12:25;;;;;;;;;;;6.90;99.90;;;;;;5058944;28;20413;-72
2020/12/18 08:15:05;;;;;;;;;;;6.90;99.90;;;;;;5058207;28;20003;-72
2020/12/18 08:17:30;;;;;;;;;;;7.00;99.90;;;;;;5049672;28;19931;-72
2020/12/18 08:19:56;;;;;;;;;;;7.10;99.90;;;;;;5047541;28;19909;-73
2020/12/18 08:22:23;;;;;;;;;;;7.20;99.90;;;;;;5048136;28;19912;-72
2020/12/18 08:24:49;;;;;;;;;;;7.30;99.90;;;;;;5047672;28;20289;-73
2020/12/18 08:27:17;;;;;;;;;;;7.40;99.90;;;;;;5047173;28;19982;-72
2020/12/18 08:29:46;;;;;;;;;;;7.70;99.90;;;;;;5048145;28;20562;-72
2020/12/18 08:32:16;;;;;;;;;;;7.80;99.90;;;;;;5046856;28;19916;-73
2020/12/18 08:34:43;;;;;;;;;;;7.90;99.90;;;;;;5048527;28;19913;-73
2020/12/18 08:37:09;;;;;;;;;;;8.00;99.90;;;;;;5047807;28;19920;-73
2020/12/18 08:39:35;;;;;;;;;;;8.20;99.90;;;;;;5052095;28;20027;-75
2020/12/18 08:42:01;;;;;;;;;;;8.30;99.90;;;;;;5050082;28;19912;-71
2020/12/18 08:44:28;;;;;;;;;;;8.20;99.90;;;;;;5048839;28;19913;-70
2020/12/18 08:46:55;;;;;;;;;;;8.10;99.90;;;;;;5043375;28;20403;-70
2020/12/18 08:49:27;;;;;;;;;;;8.20;99.90;;;;;;5047989;28;19913;-72
2020/12/18 08:51:54;;;;;;;;;;;8.30;99.90;;;;;;5047117;28;19909;-73
2020/12/18 08:54:19;;;;;;;;;;;8.40;99.90;;;;;;5047837;28;19916;-71
2020/12/18 08:56:45;;;;;;;;;;;8.50;99.90;;;;;;5049369;28;19924;-74
2020/12/18 08:59:14;;;;;;;;;;;8.70;99.90;;;;;;5068402;28;19922;-72
2020/12/18 09:01:46;;;;;;;;;;;8.70;99.90;;;;;;5064454;28;19912;-73
2020/12/18 09:04:15;;;;;;;;;;;8.30;99.90;;;;;;5069027;28;19915;-72
2020/12/18 09:06:49;;;;;;;;;;;7.80;99.90;;;;;;5050199;28;19920;-73
2020/12/18 09:09:14;;;;;;;;;;;7.80;99.90;;;;;;5048388;28;19959;-72
2020/12/18 09:11:40;;;;;;;;;;;8.10;99.90;;;;;;5046948;28;19944;-72
2020/12/18 09:14:06;;;;;;;;;;;8.30;99.90;;;;;;5048453;28;20038;-73
2020/12/18 09:16:31;;;;;;;;;;;8.20;99.90;;;;;;5057529;28;20381;-73
2020/12/18 09:18:59;;;;;;;;;;;8.30;99.90;;;;;;5046666;28;20590;-73
2020/12/18 09:21:25;;;;;;;;;;;8.10;99.90;;;;;;5045549;28;19948;-73
2020/12/18 09:23:51;;;;;;;;;;;8.00;99.90;;;;;;5048627;28;20400;-73
2020/12/18 09:26:24;;;;;;;;;;;7.90;99.90;;;;;;5047459;28;20266;-72
2020/12/18 09:28:50;;;;;;;;;;;7.70;99.90;;;;;;5053370;28;19963;-74
2020/12/18 09:31:15;;;;;;;;;;;7.60;99.90;;;;;;5057300;28;19956;-73
2020/12/18 09:33:41;;;;;;;;;;;7.60;99.90;;;;;;5056923;28;19918;-71
2020/12/18 09:36:08;;;;;;;;;;;7.70;99.90;;;;;;5060701;28;19978;-74
2020/12/18 09:38:44;;;;;;;;;;;7.90;99.90;;;;;;5060144;28;19923;-74
2020/12/18 09:41:09;;;;;;;;;;;7.90;99.90;;;;;;5055345;28;20012;-73
2020/12/18 09:43:35;;;;;;;;;;;8.00;99.90;;;;;;5062047;28;19960;-75
2020/12/18 09:46:02;;;;;;;;;;;8.20;99.90;;;;;;5059957;28;20301;-74
2020/12/18 09:48:27;;;;;;;;;;;8.40;99.90;;;;;;5060662;28;19923;-74
2020/12/18 09:50:55;;;;;;;;;;;8.70;99.90;;;;;;5057874;28;19920;-74
2020/12/18 09:53:24;;;;;;;;;;;8.60;99.90;;;;;;5057710;28;19916;-73
2020/12/18 09:55:50;;;;;;;;;;;8.70;99.90;;;;;;5061146;28;20293;-75
2020/12/18 09:58:15;;;;;;;;;;;9.10;99.90;;;;;;5061413;28;19919;-74
2020/12/18 10:00:41;;;;;;;;;;;9.30;99.90;;;;;;5059094;28;19913;-73
2020/12/18 10:03:06;;;;;;;;;;;9.50;99.90;;;;;;5058299;28;19912;-75
2020/12/18 10:05:32;;;;;;;;;;;9.90;99.90;;;;;;5059824;28;19940;-74
2020/12/18 10:07:57;;;;;;;;;;;10.00;99.90;;;;;;5058788;28;20353;-74
2020/12/18 10:10:26;;;;;;;;;;;10.50;99.90;;;;;;5058861;28;19974;-73
2020/12/18 10:12:52;;;;;;;;;;;11.20;99.90;;;;;;5060687;28;20272;-75
2020/12/18 10:15:17;;;;;;;;;;;11.80;99.90;;;;;;5059222;28;20648;-71
2020/12/18 10:17:43;;;;;;;;;;;12.80;99.90;;;;;;5057618;28;19912;-74
2020/12/18 10:20:08;;;;;;;;;;;14.10;99.90;;;;;;5060042;28;19995;-74
2020/12/18 10:22:34;;;;;;;;;;;15.10;99.90;;;;;;5057986;28;19920;-72
2020/12/18 10:24:59;;;;;;;;;;;16.20;99.90;;;;;;5058422;28;20443;-72
2020/12/18 10:27:25;;;;;;;;;;;16.50;99.90;;;;;;5050570;28;20003;-71
2020/12/18 10:29:54;;;;;;;;;;;16.40;99.90;;;;;;5054483;28;21083;-71
2020/12/18 10:32:20;;;;;;;;;;;16.10;99.90;;;;;;5053967;28;19917;-74
2020/12/18 10:34:45;;;;;;;;;;;15.90;99.90;;;;;;5058515;28;20375;-72
2020/12/18 10:37:11;;;;;;;;;;;16.10;99.90;;;;;;5061497;28;19928;-70
2020/12/18 10:39:36;;;;;;;;;;;16.50;99.90;;;;;;5049819;28;19913;-71
2020/12/18 10:42:05;;;;;;;;;;;16.90;99.90;;;;;;5048178;28;20171;-73
2020/12/18 10:44:31;;;;;;;;;;;17.20;99.90;;;;;;5050155;28;19952;-73
2020/12/18 10:46:57;;;;;;;;;;;17.70;99.90;;;;;;5047022;28;19983;-70
2020/12/18 10:49:22;;;;;;;;;;;17.90;99.90;;;;;;5050327;28;19913;-71
2020/12/18 10:51:48;;;;;;;;;;;18.10;99.90;;;;;;5049689;28;19967;-72
2020/12/18 10:54:13;;;;;;;;;;;18.20;99.90;;;;;;5049539;28;19924;-74
2020/12/18 10:56:40;;;;;;;;;;;18.40;99.90;;;;;;5048817;28;19920;-72
2020/12/18 10:59:05;;;;;;;;;;;18.70;99.90;;;;;;5046569;28;19974;-74
2020/12/18 11:01:31;;;;;;;;;;;18.80;99.90;;;;;;5029937;28;20587;-73
2020/12/18 11:03:56;;;;;;;;;;;18.60;99.90;;;;;;5037663;28;19913;-71
2020/12/18 11:06:22;;;;;;;;;;;19.00;99.90;;;;;;5046133;28;20188;-73
2020/12/18 11:08:47;;;;;;;;;;;18.80;99.90;;;;;;5044700;28;19947;-73
2020/12/18 11:11:14;;;;;;;;;;;18.80;99.90;;;;;;5046062;28;19959;-71
2020/12/18 11:13:39;;;;;;;;;;;19.00;98.60;;;;;;5046959;28;19990;-72
2020/12/18 11:16:05;;;;;;;;;;;18.50;99.60;;;;;;5046063;28;19913;-71
2020/12/18 11:18:34;;;;;;;;;;;18.50;99.30;;;;;;5045996;28;19951;-71
2020/12/18 11:21:00;;;;;;;;;;;18.70;99.20;;;;;;5046694;28;19913;-72
2020/12/18 11:23:26;;;;;;;;;;;18.80;98.70;;;;;;5045841;28;19968;-74
2020/12/18 11:25:51;;;;;;;;;;;19.10;98.20;;;;;;5046176;28;20374;-71
2020/12/18 11:28:17;;;;;;;;;;;18.90;97.80;;;;;;5046404;28;19919;-71
2020/12/18 11:30:42;;;;;;;;;;;18.80;97.60;;;;;;5044621;28;19921;-73
2020/12/18 11:33:08;;;;;;;;;;;18.70;97.10;;;;;;5045485;28;19940;-73
2020/12/18 11:35:33;;;;;;;;;;;18.70;97.10;;;;;;5047487;28;19960;-71
2020/12/18 11:37:59;;;;;;;;;;;18.50;97.20;;;;;;5046019;28;19995;-71
2020/12/18 11:40:24;;;;;;;;;;;18.30;97.20;;;;;;5046337;28;20324;-72
2020/12/18 11:42:50;;;;;;;;;;;18.20;97.10;;;;;;5046697;28;19916;-71
2020/12/18 11:45:15;;;;;;;;;;;18.00;97.40;;;;;;5045528;28;19952;-72
2020/12/18 11:47:41;;;;;;;;;;;18.10;97.60;;;;;;5044599;28;19925;-74
2020/12/18 11:50:07;;;;;;;;;;;17.90;97.00;;;;;;5045734;28;19998;-75
2020/12/18 11:52:32;;;;;;;;;;;18.00;96.90;;;;;;5046298;28;19919;-73
2020/12/18 11:54:58;;;;;;;;;;;17.80;96.60;;;;;;5046511;28;19920;-72
2020/12/18 11:57:23;;;;;;;;;;;17.70;96.60;;;;;;5045729;28;20403;-72
2020/12/18 11:59:52;;;;;;;;;;;17.60;96.10;;;;;;5046265;28;20300;-74
2020/12/18 12:02:17;;;;;;;;;;;17.70;96.00;;;;;;5044099;28;19960;-74
2020/12/18 12:04:42;;;;;;;;;;;17.70;95.90;;;;;;5046302;28;20353;-74
2020/12/18 12:07:08;;;;;;;;;;;17.60;96.20;;;;;;5045390;28;19981;-70
2020/12/18 12:09:34;;;;;;;;;;;17.50;95.30;;;;;;5045298;28;19981;-72
2020/12/18 12:11:59;;;;;;;;;;;17.00;95.40;;;;;;5045993;28;19989;-72
2020/12/18 12:14:25;;;;;;;;;;;16.70;96.30;;;;;;5046484;28;19917;-73
2020/12/18 12:16:50;;;;;;;;;;;16.70;96.60;;;;;;5043700;28;19924;-73
2020/12/18 12:19:16;;;;;;;;;;;16.80;96.80;;;;;;5046335;28;20304;-73
2020/12/18 12:21:42;;;;;;;;;;;16.80;96.00;;;;;;5045377;28;20234;-72
2020/12/18 12:24:07;;;;;;;;;;;16.50;96.10;;;;;;5046138;28;19916;-71
2020/12/18 12:26:33;;;;;;;;;;;16.20;96.90;;;;;;5045135;28;19927;-73
2020/12/18 12:28:58;;;;;;;;;;;16.10;95.80;;;;;;5046489;28;19996;-73
2020/12/18 12:31:24;;;;;;;;;;;15.90;96.10;;;;;;5044061;28;19913;-72
2020/12/18 12:33:49;;;;;;;;;;;15.50;97.10;;;;;;5046357;28;19928;-72
2020/12/18 12:36:23;;;;;;;;;;;15.60;97.40;;;;;;5044984;28;19948;-73
2020/12/18 12:38:49;;;;;;;;;;;15.80;97.90;;;;;;5045754;28;20498;-70
2020/12/18 12:41:15;;;;;;;;;;;16.00;98.00;;;;;;5046087;28;19919;-71
2020/12/18 12:43:40;;;;;;;;;;;16.10;97.80;;;;;;5046579;28;20309;-71
2020/12/18 12:46:14;;;;;;;;;;;16.10;98.00;;;;;;5044349;28;20237;-72
2020/12/18 12:48:39;;;;;;;;;;;16.00;97.90;;;;;;5044415;28;20001;-73
2020/12/18 12:51:05;;;;;;;;;;;16.10;97.60;;;;;;5044533;28;19944;-74
2020/12/18 12:53:31;;;;;;;;;;;16.10;97.60;;;;;;5051393;28;20015;-72
2020/12/18 12:55:56;;;;;;;;;;;16.10;96.70;;;;;;5045208;28;19921;-73
2020/12/18 12:58:22;;;;;;;;;;;15.90;96.00;;;;;;5051402;28;19971;-72
2020/12/18 13:00:47;;;;;;;;;;;15.90;95.60;;;;;;5046330;28;19944;-74
2020/12/18 13:03:13;;;;;;;;;;;15.70;96.50;;;;;;5045352;28;20348;-71
2020/12/18 13:05:39;;;;;;;;;;;15.60;96.90;;;;;;5047675;28;20285;-73
2020/12/18 13:08:05;;;;;;;;;;;15.50;97.30;;;;;;5042338;28;19920;-72
2020/12/18 13:10:37;;;;;;;;;;;15.30;97.70;;;;;;5048879;28;20333;-72
2020/12/18 13:13:02;;;;;;;;;;;15.40;97.60;;;;;;5049714;28;20263;-72
2020/12/18 13:15:28;;;;;;;;;;;15.40;97.20;;;;;;5048753;28;19917;-74
2020/12/18 13:17:53;;;;;;;;;;;15.20;96.50;;;;;;5048458;28;19916;-70
2020/12/18 13:20:19;;;;;;;;;;;15.10;96.50;;;;;;5047688;28;20290;-73
2020/12/18 13:22:44;;;;;;;;;;;14.90;97.20;;;;;;5049588;28;19991;-70
2020/12/18 13:25:10;;;;;;;;;;;14.70;96.80;;;;;;5050149;28;19913;-72
2020/12/18 13:27:35;;;;;;;;;;;14.70;97.10;;;;;;5048855;28;20016;-71
2020/12/18 13:30:01;;;;;;;;;;;14.50;97.20;;;;;;5048721;28;19913;-73
2020/12/18 13:32:26;;;;;;;;;;;13.90;97.60;;;;;;5048104;28;19966;-72
2020/12/18 13:34:52;;;;;;;;;;;13.50;98.80;;;;;;5049532;28;19913;-73
2020/12/18 13:37:17;;;;;;;;;;;13.10;99.70;;;;;;5048478;28;19999;-70
2020/12/18 13:39:43;;;;;;;;;;;12.80;99.90;;;;;;5048830;28;20373;-74
2020/12/18 13:42:11;;;;;;;;;;;12.60;99.90;;;;;;5048835;28;19920;-73
2020/12/18 13:44:36;;;;;;;;;;;12.70;99.90;;;;;;5049532;28;19917;-73
2020/12/18 13:47:02;;;;;;;;;;;12.70;99.90;;;;;;5048034;28;20004;-74
2020/12/18 13:49:27;;;;;;;;;;;12.80;99.90;;;;;;5049074;28;19909;-72
2020/12/18 13:51:53;;;;;;;;;;;12.70;99.90;;;;;;5048300;28;19971;-72
2020/12/18 13:54:18;;;;;;;;;;;12.40;99.90;;;;;;5050038;28;19978;-75
2020/12/18 13:56:45;;;;;;;;;;;12.40;99.90;;;;;;5048202;28;19913;-72
2020/12/18 13:59:10;;;;;;;;;;;12.30;99.90;;;;;;5048652;28;20440;-71
2020/12/18 14:01:37;;;;;;;;;;;12.00;99.90;;;;;;5046564;28;19919;-72
2020/12/18 14:04:03;;;;;;;;;;;12.00;99.90;;;;;;5049407;28;20060;-72
2020/12/18 14:06:29;;;;;;;;;;;12.00;99.90;;;;;;5048400;28;20353;-72
2020/12/18 14:08:54;;;;;;;;;;;12.00;99.90;;;;;;5049032;28;19913;-72
2020/12/18 14:11:20;;;;;;;;;;;12.10;99.90;;;;;;5048000;28;20040;-71
2020/12/18 14:13:47;;;;;;;;;;;12.10;99.90;;;;;;5048055;28;19919;-73
2020/12/18 14:16:13;;;;;;;;;;;11.90;99.90;;;;;;5047155;28;19913;-71
2020/12/18 14:18:38;;;;;;;;;;;11.70;99.90;;;;;;5047404;28;20050;-72
2020/12/18 14:21:04;;;;;;;;;;;11.40;99.90;;;;;;5047388;28;19920;-71